TimeCST,TemperatureF,Dew PointF,Humidity,Sea Level PressureIn,VisibilityMPH,Wind Direction,Wind SpeedMPH,Gust SpeedMPH,PrecipitationIn,Events,Conditions,WindDirDegrees,DateUTC
12:14 AM,6.8,-7.6,52,30.20,10.0,WNW,19.6,25.3,N/A,,Clear,300,2013-01-20 06:14:00
12:34 AM,5.0,-7.6,56,30.22,10.0,WNW,20.7,25.3,N/A,,Clear,300,2013-01-20 06:34:00
12:54 AM,5.0,-5.8,61,30.22,10.0,WNW,17.3,-,N/A,,Clear,290,2013-01-20 06:54:00
1:14 AM,5.0,-5.8,61,30.22,10.0,WNW,15.0,25.3,N/A,,Clear,300,2013-01-20 07:14:00
1:33 AM,3.2,-5.8,66,30.23,5.0,WNW,17.3,-,N/A,,Haze,300,2013-01-20 07:33:00
1:54 AM,3.2,-5.8,66,30.24,10.0,WNW,13.8,19.6,N/A,,Clear,290,2013-01-20 07:54:00
2:14 AM,3.2,-5.8,66,30.25,10.0,WNW,11.5,18.4,N/A,,Clear,300,2013-01-20 08:14:00
2:34 AM,3.2,-7.6,61,30.26,10.0,WNW,13.8,-,N/A,,Clear,290,2013-01-20 08:34:00
2:54 AM,3.2,-7.6,61,30.27,10.0,WNW,12.7,17.3,N/A,,Clear,290,2013-01-20 08:54:00
3:14 AM,3.2,-7.6,61,30.27,10.0,WNW,11.5,18.4,N/A,,Clear,300,2013-01-20 09:14:00
3:33 AM,3.2,-7.6,61,30.28,10.0,WNW,15.0,19.6,N/A,,Clear,300,2013-01-20 09:33:00
3:54 AM,3.2,-7.6,61,30.29,10.0,WNW,16.1,-,N/A,,Clear,300,2013-01-20 09:54:00
4:14 AM,3.2,-7.6,61,30.28,10.0,NW,12.7,-,N/A,,Clear,310,2013-01-20 10:14:00
4:34 AM,3.2,-7.6,61,30.28,10.0,WNW,13.8,-,N/A,,Clear,300,2013-01-20 10:34:00
4:54 AM,3.2,-7.6,61,30.27,10.0,WNW,11.5,-,N/A,,Clear,290,2013-01-20 10:54:00
5:14 AM,3.2,-7.6,61,30.27,10.0,WNW,9.2,-,N/A,,Clear,290,2013-01-20 11:14:00
5:34 AM,3.2,-7.6,61,30.27,10.0,WNW,13.8,-,N/A,,Clear,300,2013-01-20 11:34:00
5:54 AM,3.2,-7.6,61,30.28,10.0,WNW,12.7,-,N/A,,Clear,290,2013-01-20 11:54:00
6:13 AM,3.2,-7.6,61,30.30,10.0,WNW,10.4,-,N/A,,Clear,290,2013-01-20 12:13:00
6:34 AM,3.2,-7.6,61,30.29,10.0,WNW,10.4,-,N/A,,Clear,300,2013-01-20 12:34:00
6:54 AM,3.2,-7.6,61,30.28,10.0,WNW,11.5,-,N/A,,Clear,300,2013-01-20 12:54:00
7:14 AM,3.2,-7.6,61,30.28,10.0,NW,11.5,-,N/A,,Clear,310,2013-01-20 13:14:00
7:34 AM,3.2,-7.6,61,30.28,10.0,NW,11.5,-,N/A,,Clear,310,2013-01-20 13:34:00
7:54 AM,3.2,-7.6,61,30.29,10.0,WNW,11.5,-,N/A,,Clear,300,2013-01-20 13:54:00
8:13 AM,3.2,-7.6,61,30.30,10.0,WNW,10.4,-,N/A,,Clear,290,2013-01-20 14:13:00
8:33 AM,3.2,-7.6,61,30.31,10.0,WNW,10.4,-,N/A,,Clear,290,2013-01-20 14:33:00
8:54 AM,5.0,-7.6,56,30.32,10.0,WNW,11.5,-,N/A,,Clear,300,2013-01-20 14:54:00
9:14 AM,5.0,-7.6,56,30.33,10.0,West,10.4,-,N/A,,Clear,280,2013-01-20 15:14:00
9:33 AM,6.8,-5.8,56,30.33,10.0,West,11.5,-,N/A,,Clear,280,2013-01-20 15:33:00
9:53 AM,6.8,-5.8,56,30.34,10.0,West,10.4,-,N/A,,Clear,270,2013-01-20 15:53:00
10:14 AM,6.8,-5.8,56,30.35,10.0,West,11.5,-,N/A,,Clear,280,2013-01-20 16:14:00
10:34 AM,6.8,-5.8,56,30.35,10.0,WNW,10.4,-,N/A,,Clear,290,2013-01-20 16:34:00
10:54 AM,6.8,-5.8,56,30.35,10.0,WNW,12.7,-,N/A,,Clear,290,2013-01-20 16:54:00
11:14 AM,8.6,-5.8,52,30.35,10.0,WNW,13.8,-,N/A,,Clear,290,2013-01-20 17:14:00
11:34 AM,8.6,-5.8,52,30.34,10.0,WNW,13.8,-,N/A,,Clear,290,2013-01-20 17:34:00
11:53 AM,8.6,-5.8,52,30.33,10.0,WNW,12.7,16.1,N/A,,Clear,300,2013-01-20 17:53:00
12:13 PM,10.4,-5.8,48,30.33,10.0,WNW,11.5,20.7,N/A,,Clear,290,2013-01-20 18:13:00
12:34 PM,10.4,-7.6,44,30.32,10.0,WNW,15.0,-,N/A,,Clear,300,2013-01-20 18:34:00
12:54 PM,10.4,-5.8,48,30.31,10.0,WNW,12.7,18.4,N/A,,Scattered Clouds,290,2013-01-20 18:54:00
1:14 PM,12.2,-7.6,41,30.30,10.0,WNW,13.8,-,N/A,,Scattered Clouds,290,2013-01-20 19:14:00
1:54 PM,12.2,-5.8,45,30.29,10.0,West,15.0,19.6,N/A,,Scattered Clouds,280,2013-01-20 19:54:00
2:14 PM,12.2,-5.8,45,30.29,10.0,WNW,13.8,-,N/A,,Mostly Cloudy,300,2013-01-20 20:14:00
2:34 PM,12.2,-5.8,45,30.28,10.0,West,16.1,-,N/A,,Scattered Clouds,280,2013-01-20 20:34:00
2:54 PM,12.2,-5.8,45,30.28,10.0,West,17.3,-,N/A,,Scattered Clouds,280,2013-01-20 20:54:00
3:14 PM,12.2,-5.8,45,30.28,10.0,WNW,12.7,19.6,N/A,,Scattered Clouds,290,2013-01-20 21:14:00
3:34 PM,12.2,-5.8,45,30.27,10.0,West,13.8,20.7,N/A,,Scattered Clouds,280,2013-01-20 21:34:00
3:54 PM,12.2,-5.8,45,30.26,10.0,West,15.0,18.4,N/A,,Clear,270,2013-01-20 21:54:00
4:14 PM,12.2,-5.8,45,30.26,10.0,West,16.1,-,N/A,,Scattered Clouds,270,2013-01-20 22:14:00
4:34 PM,12.2,-4.0,48,30.26,10.0,WNW,17.3,-,N/A,,Mostly Cloudy,290,2013-01-20 22:34:00
4:54 PM,12.2,-2.2,53,30.26,10.0,West,16.1,-,N/A,,Mostly Cloudy,280,2013-01-20 22:54:00
5:14 PM,10.4,-2.2,57,30.26,10.0,WNW,13.8,-,N/A,,Mostly Cloudy,290,2013-01-20 23:14:00
5:34 PM,10.4,-0.4,62,30.25,10.0,WNW,16.1,19.6,N/A,,Overcast,300,2013-01-20 23:34:00
5:53 PM,10.4,-2.2,57,30.25,10.0,NW,18.4,23.0,N/A,,Overcast,310,2013-01-20 23:53:00
6:14 PM,10.4,-0.4,62,30.25,7.0,WNW,15.0,-,N/A,,Overcast,300,2013-01-21 00:14:00
6:34 PM,10.4,-0.4,62,30.25,10.0,WNW,15.0,-,N/A,,Overcast,290,2013-01-21 00:34:00
6:54 PM,10.4,-0.4,62,30.25,10.0,West,13.8,-,N/A,,Overcast,280,2013-01-21 00:54:00
7:14 PM,10.4,-2.2,57,30.25,10.0,West,16.1,-,N/A,,Overcast,280,2013-01-21 01:14:00
7:34 PM,10.4,-0.4,62,30.25,4.0,WNW,16.1,19.6,N/A,Snow,Light Snow,290,2013-01-21 01:34:00
7:54 PM,8.6,-4.0,57,30.24,10.0,WNW,19.6,28.8,N/A,,Scattered Clouds,300,2013-01-21 01:54:00
8:14 PM,8.6,-2.2,62,30.24,10.0,WNW,18.4,25.3,N/A,,Clear,290,2013-01-21 02:14:00
8:34 PM,8.6,-2.2,62,30.24,5.0,WNW,20.7,24.2,N/A,,Haze,300,2013-01-21 02:34:00
8:54 PM,6.8,-5.8,56,30.23,10.0,WNW,20.7,26.5,N/A,,Clear,300,2013-01-21 02:54:00
9:14 PM,6.8,-7.6,52,30.23,10.0,WNW,17.3,-,N/A,,Clear,300,2013-01-21 03:14:00
9:34 PM,6.8,-7.6,52,30.23,10.0,WNW,15.0,-,N/A,,Clear,290,2013-01-21 03:34:00
9:54 PM,5.0,-7.6,56,30.23,10.0,WNW,19.6,23.0,N/A,,Clear,290,2013-01-21 03:54:00
10:14 PM,5.0,-7.6,56,30.24,10.0,WNW,17.3,-,N/A,,Clear,300,2013-01-21 04:14:00
10:34 PM,3.2,-7.6,61,30.24,10.0,WNW,18.4,24.2,N/A,,Clear,300,2013-01-21 04:34:00
10:54 PM,3.2,-9.4,56,30.24,10.0,WNW,18.4,27.6,N/A,,Clear,290,2013-01-21 04:54:00
11:14 PM,1.4,-11.2,56,30.24,10.0,WNW,20.7,33.4,N/A,,Clear,290,2013-01-21 05:14:00
11:34 PM,1.4,-9.4,61,30.25,10.0,WNW,19.6,26.5,N/A,,Clear,290,2013-01-21 05:34:00
11:54 PM,1.4,-9.4,61,30.24,7.0,WNW,15.0,-,N/A,,Clear,290,2013-01-21 05:54:00